Time;durP1;ratioP1;P1;durP2;ratioP2;P2;SDS_P1;SDS_P2;PMS_P1;PMS_P2;Temp;Humidity;BMP_temperature;BMP_pressure;BME280_temperature;BME280_humidity;BME280_pressure;Samples;Min_cycle;Max_cycle;Signal;HPM_P1;HPM_P2
2022/03/19 00:00:35;;;;;;;14.95;3.55;;;5.30;99.90;;;;;;5010952;28;20050;-39
2022/03/19 00:03:02;;;;;;;18.67;3.63;;;5.30;99.90;;;;;;5013305;28;20046;-39
2022/03/19 00:05:29;;;;;;;17.73;4.28;;;5.30;99.90;;;;;;5014227;28;20041;-40
2022/03/19 00:07:56;;;;;;;18.52;3.85;;;5.20;99.90;;;;;;5014478;28;20444;-39
2022/03/19 00:10:23;;;;;;;21.92;4.53;;;5.20;99.90;;;;;;5013840;28;20034;-39
2022/03/19 00:12:49;;;;;;;24.58;4.25;;;5.20;99.90;;;;;;5013401;28;20052;-39
2022/03/19 00:15:17;;;;;;;20.80;3.60;;;5.10;99.90;;;;;;5015012;28;20446;-40
2022/03/19 00:17:45;;;;;;;16.42;3.90;;;5.10;99.90;;;;;;5014494;28;20393;-39
2022/03/19 00:20:12;;;;;;;25.20;4.85;;;5.10;99.90;;;;;;5013120;28;20057;-38
2022/03/19 00:22:39;;;;;;;24.60;4.13;;;5.10;99.90;;;;;;5013707;28;20057;-39
2022/03/19 00:25:08;;;;;;;22.88;4.13;;;5.00;99.90;;;;;;5013985;28;20052;-39
2022/03/19 00:27:35;;;;;;;20.48;3.53;;;5.00;99.90;;;;;;5014845;28;20092;-39
2022/03/19 00:30:01;;;;;;;21.13;3.95;;;5.00;99.90;;;;;;5014747;28;20124;-39
2022/03/19 00:32:28;;;;;;;21.92;4.25;;;4.90;99.90;;;;;;5014125;28;20056;-39
2022/03/19 00:34:56;;;;;;;15.00;3.60;;;4.90;99.90;;;;;;5014504;28;20077;-39
2022/03/19 00:37:23;;;;;;;20.25;4.22;;;4.90;99.90;;;;;;5008663;28;20058;-39
2022/03/19 00:39:50;;;;;;;22.55;4.40;;;4.80;99.90;;;;;;5014093;28;20393;-39
2022/03/19 00:42:16;;;;;;;19.00;3.70;;;4.90;99.90;;;;;;5013559;28;20038;-39
2022/03/19 00:44:44;;;;;;;24.35;3.67;;;4.80;99.90;;;;;;5014133;28;20041;-39
2022/03/19 00:47:10;;;;;;;16.92;3.97;;;4.80;99.90;;;;;;5013218;28;20046;-39
2022/03/19 00:49:37;;;;;;;18.35;4.00;;;4.80;99.90;;;;;;5014501;28;20393;-39
2022/03/19 00:52:06;;;;;;;20.48;4.18;;;4.70;99.90;;;;;;5014210;28;20056;-39
2022/03/19 00:54:33;;;;;;;23.05;4.10;;;4.70;99.90;;;;;;5010091;28;20343;-39
2022/03/19 00:56:59;;;;;;;24.80;4.95;;;4.70;99.90;;;;;;5012195;28;20124;-39
2022/03/19 00:59:26;;;;;;;21.83;3.50;;;4.70;99.90;;;;;;5013754;28;20489;-39
2022/03/19 01:01:53;;;;;;;22.23;4.72;;;4.70;99.90;;;;;;5014084;28;20046;-39
2022/03/19 01:04:20;;;;;;;18.25;3.60;;;4.70;99.90;;;;;;5013530;28;20048;-39
2022/03/19 01:06:46;;;;;;;25.10;4.47;;;4.60;99.90;;;;;;5014291;28;20046;-39
2022/03/19 01:09:14;;;;;;;18.33;4.15;;;4.60;99.90;;;;;;5012373;28;20054;-39
2022/03/19 01:11:41;;;;;;;16.77;3.67;;;4.60;99.90;;;;;;5010053;28;20046;-39
2022/03/19 01:14:08;;;;;;;24.27;4.53;;;4.60;99.90;;;;;;5012760;28;20270;-39
2022/03/19 01:16:34;;;;;;;15.27;4.07;;;4.60;99.90;;;;;;5011248;28;20458;-39
2022/03/19 01:19:01;;;;;;;23.13;4.25;;;4.50;99.90;;;;;;5013545;28;20077;-39
2022/03/19 01:21:28;;;;;;;25.13;4.55;;;4.60;99.90;;;;;;5013503;28;20038;-39
2022/03/19 01:23:54;;;;;;;18.60;3.78;;;4.50;99.90;;;;;;5012340;28;20049;-39
2022/03/19 01:26:24;;;;;;;25.95;4.45;;;4.50;99.90;;;;;;5013076;28;20393;-39
2022/03/19 01:28:50;;;;;;;16.52;3.85;;;4.50;99.90;;;;;;5013896;28;20038;-39
2022/03/19 01:31:19;;;;;;;23.73;4.15;;;4.50;99.90;;;;;;5013502;28;20053;-39
2022/03/19 01:33:45;;;;;;;13.15;3.20;;;4.40;99.90;;;;;;5011762;28;20128;-39
2022/03/19 01:36:15;;;;;;;16.77;4.15;;;4.40;99.90;;;;;;5011219;28;20120;-40
2022/03/19 01:38:42;;;;;;;18.00;3.78;;;4.50;99.90;;;;;;5012596;28;20050;-39
2022/03/19 01:41:09;;;;;;;16.33;3.60;;;4.40;99.90;;;;;;5012126;28;20504;-39
2022/03/19 01:43:38;;;;;;;14.68;4.07;;;4.40;99.90;;;;;;5012991;28;20504;-39
2022/03/19 01:46:05;;;;;;;15.05;3.70;;;4.40;99.90;;;;;;5011464;28;20481;-39
2022/03/19 01:48:32;;;;;;;18.23;3.65;;;4.40;99.90;;;;;;5011852;28;20092;-39
2022/03/19 01:50:59;;;;;;;15.80;4.03;;;4.40;99.90;;;;;;5008506;28;20056;-39
2022/03/19 01:53:25;;;;;;;23.23;4.57;;;4.30;99.90;;;;;;5008355;28;20144;-39
2022/03/19 01:55:53;;;;;;;16.98;4.22;;;4.40;99.90;;;;;;5012800;28;20511;-39
2022/03/19 01:58:20;;;;;;;16.38;4.13;;;4.30;99.90;;;;;;5012358;28;20048;-39
2022/03/19 02:00:48;;;;;;;14.57;3.75;;;4.30;99.90;;;;;;5011861;28;20788;-39
2022/03/19 02:03:15;;;;;;;15.60;4.05;;;4.30;99.90;;;;;;5013165;28;20049;-40
2022/03/19 02:05:41;;;;;;;19.80;4.80;;;4.20;99.90;;;;;;5011082;28;20042;-39
2022/03/19 02:08:08;;;;;;;14.73;3.97;;;4.20;99.90;;;;;;5012593;28;20130;-39
2022/03/19 02:10:35;;;;;;;19.08;4.00;;;4.20;99.90;;;;;;5012086;28;20048;-39
2022/03/19 02:13:02;;;;;;;19.23;4.18;;;4.20;99.90;;;;;;5012197;28;20081;-39
2022/03/19 02:15:29;;;;;;;19.92;4.25;;;4.10;99.90;;;;;;5011950;28;20092;-39
2022/03/19 02:17:57;;;;;;;16.05;4.82;;;4.10;99.90;;;;;;5012023;28;20555;-39
2022/03/19 02:20:24;;;;;;;26.05;4.38;;;4.10;99.90;;;;;;5011813;28;20055;-39
2022/03/19 02:25:36;;;;;;;23.35;4.20;;;4.10;99.90;;;;;;5012204;28;20042;-39
2022/03/19 02:28:03;;;;;;;18.77;4.53;;;4.00;99.90;;;;;;5008202;28;20046;-39
2022/03/19 02:30:30;;;;;;;22.23;4.82;;;4.00;99.90;;;;;;5011985;28;20050;-39
2022/03/19 02:33:00;;;;;;;17.40;4.38;;;4.10;99.90;;;;;;5013301;28;20077;-40
2022/03/19 02:35:27;;;;;;;20.65;5.15;;;4.00;99.90;;;;;;5013811;28;20552;-39
2022/03/19 02:37:54;;;;;;;19.65;4.32;;;4.00;99.90;;;;;;5012376;28;20442;-40
2022/03/19 02:40:21;;;;;;;18.92;4.43;;;4.00;99.90;;;;;;5013787;28;20045;-39
2022/03/19 02:42:51;;;;;;;23.88;5.30;;;4.00;99.90;;;;;;5011800;28;20743;-39
2022/03/19 02:45:18;;;;;;;22.52;5.47;;;4.00;99.90;;;;;;5011931;28;20057;-39
2022/03/19 02:48:00;;;;;;;19.67;4.90;;;4.00;99.90;;;;;;5012026;28;20432;-40
2022/03/19 02:50:29;;;;;;;24.38;4.60;;;4.00;99.90;;;;;;5013554;28;20427;-40
2022/03/19 02:52:56;;;;;;;23.20;4.75;;;4.00;99.90;;;;;;5012345;28;20096;-40
2022/03/19 02:55:24;;;;;;;21.27;4.68;;;4.00;99.90;;;;;;5013136;28;20294;-40
2022/03/19 02:57:52;;;;;;;20.13;4.82;;;4.00;99.90;;;;;;5013098;28;20068;-40
2022/03/19 03:00:19;;;;;;;22.35;5.05;;;4.00;99.90;;;;;;5012878;28;20048;-40
2022/03/19 03:02:46;;;;;;;24.17;4.70;;;4.00;99.90;;;;;;5010754;28;20049;-39
2022/03/19 03:05:13;;;;;;;24.88;5.00;;;4.00;99.90;;;;;;5010908;28;20493;-39
2022/03/19 03:07:40;;;;;;;17.10;5.28;;;4.00;99.90;;;;;;5010953;28;20045;-39
2022/03/19 03:10:08;;;;;;;16.40;4.70;;;4.00;99.90;;;;;;5011931;28;20061;-39
2022/03/19 03:12:34;;;;;;;19.65;5.05;;;4.00;99.90;;;;;;5012401;28;20104;-40
2022/03/19 03:15:03;;;;;;;19.77;4.60;;;4.00;99.90;;;;;;5010589;28;20042;-39
2022/03/19 03:17:29;;;;;;;19.83;4.90;;;4.00;99.90;;;;;;5009613;28;20049;-39
2022/03/19 03:19:56;;;;;;;22.50;4.80;;;3.90;99.90;;;;;;5010535;28;20524;-38
2022/03/19 03:22:24;;;;;;;19.90;5.03;;;3.90;99.90;;;;;;5012979;28;20057;-39
2022/03/19 03:24:50;;;;;;;24.42;4.93;;;3.90;99.90;;;;;;5012802;28;20443;-39
2022/03/19 03:27:17;;;;;;;19.48;5.18;;;3.90;99.90;;;;;;5012065;28;20038;-39
2022/03/19 03:29:44;;;;;;;21.35;4.90;;;3.90;99.90;;;;;;5011457;28;20053;-39
2022/03/19 03:32:12;;;;;;;23.98;5.18;;;3.90;99.90;;;;;;5010582;28;20060;-38
2022/03/19 03:34:39;;;;;;;29.52;5.63;;;3.90;99.90;;;;;;5011682;28;20396;-38
2022/03/19 03:37:05;;;;;;;26.30;4.70;;;3.90;99.90;;;;;;5011394;28;20077;-39
2022/03/19 03:39:32;;;;;;;24.48;7.32;;;3.90;99.90;;;;;;5011557;28;20034;-39
2022/03/19 03:41:59;;;;;;;18.13;5.00;;;3.90;99.90;;;;;;5010651;28;20046;-38
2022/03/19 03:44:25;;;;;;;23.17;5.07;;;3.90;99.90;;;;;;5011053;28;20385;-39
2022/03/19 03:46:52;;;;;;;20.42;6.40;;;3.90;99.90;;;;;;5010537;28;20052;-38
2022/03/19 03:49:20;;;;;;;19.63;4.57;;;3.80;99.90;;;;;;5012264;28;20389;-38
2022/03/19 03:51:47;;;;;;;23.30;4.95;;;3.80;99.90;;;;;;5010799;28;20048;-38
2022/03/19 03:54:14;;;;;;;19.23;5.30;;;3.80;99.90;;;;;;5010237;28;20053;-39
2022/03/19 03:56:40;;;;;;;18.10;5.00;;;3.80;99.90;;;;;;5011566;28;20375;-40
2022/03/19 03:59:07;;;;;;;25.40;5.60;;;3.80;99.90;;;;;;5012282;28;20045;-39
2022/03/19 04:01:34;;;;;;;21.50;5.47;;;3.80;99.90;;;;;;5007994;28;20441;-39
2022/03/19 04:04:00;;;;;;;19.52;5.18;;;3.80;99.90;;;;;;5010652;28;20046;-39
2022/03/19 04:06:28;;;;;;;19.05;4.90;;;3.80;99.90;;;;;;5013464;28;20058;-39
2022/03/19 04:08:55;;;;;;;21.52;5.38;;;3.80;99.90;;;;;;5014825;28;20541;-38
2022/03/19 04:11:22;;;;;;;19.80;5.30;;;3.70;99.90;;;;;;5014183;28;20038;-39
2022/03/19 04:13:48;;;;;;;15.70;5.13;;;3.70;99.90;;;;;;5011240;28;20038;-39
2022/03/19 04:16:15;;;;;;;23.48;5.40;;;3.70;99.90;;;;;;5013470;28;20049;-39
2022/03/19 04:18:44;;;;;;;23.45;5.97;;;3.70;99.90;;;;;;5007411;28;20034;-39
2022/03/19 04:21:10;;;;;;;18.50;4.88;;;3.70;99.90;;;;;;5014622;28;20073;-39
2022/03/19 04:23:38;;;;;;;27.35;5.75;;;3.70;99.90;;;;;;5014290;28;20057;-39
2022/03/19 04:26:05;;;;;;;18.50;5.15;;;3.70;99.90;;;;;;5014777;28;20049;-38
2022/03/19 04:28:32;;;;;;;22.52;5.53;;;3.60;99.90;;;;;;5014600;28;20050;-39
2022/03/19 04:30:58;;;;;;;23.95;5.57;;;3.60;99.90;;;;;;5013615;28;20133;-39
2022/03/19 04:33:25;;;;;;;19.90;5.40;;;3.60;99.90;;;;;;5013294;28;20486;-39
2022/03/19 04:38:39;;;;;;;23.33;6.00;;;3.60;99.90;;;;;;5027026;28;20058;-40
2022/03/19 04:41:06;;;;;;;24.35;5.60;;;3.60;99.90;;;;;;5014110;28;20092;-39
2022/03/19 04:43:33;;;;;;;21.25;5.47;;;3.50;99.90;;;;;;5014044;28;20457;-40
2022/03/19 04:45:59;;;;;;;18.95;5.45;;;3.50;99.90;;;;;;5013935;28;20052;-39
2022/03/19 04:48:27;;;;;;;21.10;5.85;;;3.50;99.90;;;;;;5014461;28;20052;-39
2022/03/19 04:50:54;;;;;;;24.95;5.70;;;3.50;99.90;;;;;;5012478;28;20425;-39
2022/03/19 04:53:21;;;;;;;22.13;6.10;;;3.50;99.90;;;;;;5014218;28;20389;-39
2022/03/19 04:55:49;;;;;;;19.63;5.63;;;3.50;99.90;;;;;;5013678;28;20125;-39
2022/03/19 04:58:16;;;;;;;24.67;5.93;;;3.50;99.90;;;;;;5012791;28;20046;-39
2022/03/19 05:00:43;;;;;;;23.80;5.78;;;3.50;99.90;;;;;;5014023;28;20049;-39
2022/03/19 05:03:12;;;;;;;16.13;5.45;;;3.40;99.90;;;;;;5013265;28;20045;-39
2022/03/19 05:05:39;;;;;;;22.13;6.07;;;3.40;99.90;;;;;;5012788;28;20133;-39
2022/03/19 05:08:06;;;;;;;19.45;5.35;;;3.40;99.90;;;;;;5012795;28;20081;-39
2022/03/19 05:13:18;;;;;;;23.95;5.60;;;3.30;99.90;;;;;;5012297;28;20046;-39
2022/03/19 05:15:45;;;;;;;22.15;5.60;;;3.30;99.90;;;;;;5011920;28;20042;-39
2022/03/19 05:18:12;;;;;;;26.65;5.85;;;3.30;99.90;;;;;;5013811;28;20398;-39
2022/03/19 05:20:39;;;;;;;18.25;5.45;;;3.20;99.90;;;;;;5012258;28;20064;-39
2022/03/19 05:23:06;;;;;;;24.30;5.40;;;3.20;99.90;;;;;;5012813;28;20074;-38
2022/03/19 05:25:33;;;;;;;22.23;6.07;;;3.20;99.90;;;;;;5013078;28;20041;-39
2022/03/19 05:27:59;;;;;;;20.88;5.57;;;3.20;99.90;;;;;;5013570;28;20385;-39
2022/03/19 05:30:27;;;;;;;24.27;6.93;;;3.20;99.90;;;;;;5013434;28;20137;-39
2022/03/19 05:32:54;;;;;;;21.42;7.40;;;3.20;99.90;;;;;;5010283;28;20041;-39
2022/03/19 05:35:21;;;;;;;23.13;6.22;;;3.20;99.90;;;;;;5013554;28;20046;-40
2022/03/19 05:37:48;;;;;;;21.35;5.60;;;3.20;99.90;;;;;;5010819;28;20129;-40
2022/03/19 05:40:15;;;;;;;25.33;6.00;;;3.20;99.90;;;;;;5013030;28;20132;-40
2022/03/19 05:42:42;;;;;;;32.25;6.70;;;3.20;99.90;;;;;;5013206;28;20126;-40
2022/03/19 05:45:09;;;;;;;27.00;6.15;;;3.10;99.90;;;;;;5012117;28;20496;-40
2022/03/19 05:47:38;;;;;;;24.63;5.63;;;3.10;99.90;;;;;;5007092;28;20073;-40
2022/03/19 05:50:05;;;;;;;25.42;5.72;;;3.10;99.90;;;;;;5012931;28;20056;-39
2022/03/19 05:52:32;;;;;;;25.60;6.13;;;3.10;99.90;;;;;;5012060;28;20501;-38
2022/03/19 05:54:59;;;;;;;22.23;5.63;;;3.20;99.90;;;;;;5011131;28;20037;-39
2022/03/19 05:57:25;;;;;;;28.00;5.93;;;3.20;99.90;;;;;;5012840;28;20046;-39
2022/03/19 05:59:52;;;;;;;27.02;5.97;;;3.20;99.90;;;;;;5013038;28;20037;-38
2022/03/19 06:02:19;;;;;;;25.60;5.82;;;3.30;99.90;;;;;;5028024;28;20050;-39
2022/03/19 06:04:47;;;;;;;26.88;6.63;;;3.30;99.90;;;;;;5011994;28;20052;-39
2022/03/19 06:07:13;;;;;;;20.42;6.22;;;3.40;99.90;;;;;;5012183;28;20052;-39
2022/03/19 06:09:40;;;;;;;21.80;5.80;;;3.40;99.90;;;;;;5012839;28;20393;-39
2022/03/19 06:12:08;;;;;;;18.55;6.72;;;3.50;99.90;;;;;;5010390;28;20462;-39
2022/03/19 06:14:34;;;;;;;23.67;7.13;;;3.50;99.90;;;;;;5012807;28;20129;-39
2022/03/19 06:17:01;;;;;;;17.70;5.88;;;3.50;99.90;;;;;;5010240;28;20485;-39
2022/03/19 06:19:28;;;;;;;27.17;6.55;;;3.60;99.90;;;;;;5012288;28;20041;-38
2022/03/19 06:21:56;;;;;;;20.42;5.88;;;3.70;99.90;;;;;;5012470;28;20120;-38
2022/03/19 06:24:23;;;;;;;27.98;6.68;;;3.70;99.90;;;;;;5011098;28;20061;-39
2022/03/19 06:26:50;;;;;;;24.10;6.47;;;3.70;99.90;;;;;;5012439;28;20573;-39
2022/03/19 06:29:17;;;;;;;20.45;6.55;;;3.70;99.90;;;;;;5012379;28;20048;-39
2022/03/19 06:31:43;;;;;;;18.80;6.00;;;3.80;99.90;;;;;;5012439;28;20050;-39
2022/03/19 06:34:10;;;;;;;19.20;5.97;;;3.90;99.90;;;;;;5010265;28;20092;-39
2022/03/19 06:39:22;;;;;;;24.15;7.15;;;4.00;99.90;;;;;;5012124;28;20390;-40
2022/03/19 06:41:49;;;;;;;23.02;6.32;;;4.00;99.90;;;;;;5011882;28;20060;-39
2022/03/19 06:44:15;;;;;;;27.52;6.63;;;4.10;99.90;;;;;;5012162;28;20057;-40
2022/03/19 06:46:42;;;;;;;25.52;6.28;;;4.20;99.90;;;;;;5010995;28;20126;-39
2022/03/19 06:49:09;;;;;;;18.02;6.10;;;4.20;99.90;;;;;;5012279;28;20136;-39
2022/03/19 06:51:36;;;;;;;24.35;5.97;;;4.30;99.90;;;;;;5010890;28;20477;-39
2022/03/19 06:54:03;;;;;;;29.08;6.68;;;4.40;99.90;;;;;;5011546;28;20434;-39
2022/03/19 06:56:31;;;;;;;26.35;6.97;;;4.40;99.90;;;;;;5010580;28;20046;-39
2022/03/19 06:58:58;;;;;;;29.42;6.82;;;4.50;99.90;;;;;;5011604;28;20124;-39
2022/03/19 07:01:25;;;;;;;29.42;6.95;;;4.50;99.90;;;;;;5011397;28;20048;-39
2022/03/19 07:03:51;;;;;;;24.05;6.38;;;4.60;99.90;;;;;;5011010;28;20046;-39
2022/03/19 07:06:19;;;;;;;17.65;6.00;;;4.70;99.90;;;;;;5010500;28;20037;-39
2022/03/19 07:08:45;;;;;;;19.05;6.55;;;4.70;99.90;;;;;;5011014;28;20045;-39
2022/03/19 07:11:12;;;;;;;21.83;6.45;;;4.80;99.90;;;;;;5009557;28;20052;-39
2022/03/19 07:13:41;;;;;;;23.33;7.47;;;4.90;99.90;;;;;;5011968;28;20053;-39
2022/03/19 07:16:08;;;;;;;21.50;6.38;;;5.00;99.90;;;;;;5011299;28;20112;-39
2022/03/19 07:18:35;;;;;;;23.48;6.03;;;5.00;99.90;;;;;;5008446;28;20371;-39
2022/03/19 07:21:02;;;;;;;18.70;6.05;;;5.20;99.90;;;;;;5012311;28;20074;-39
2022/03/19 07:23:29;;;;;;;26.30;7.28;;;5.20;99.90;;;;;;5011131;28;20042;-39
2022/03/19 07:25:59;;;;;;;27.27;6.78;;;5.40;99.90;;;;;;5010890;28;20045;-39
2022/03/19 07:28:26;;;;;;;23.33;5.88;;;5.50;99.90;;;;;;5011796;28;20144;-39
2022/03/19 07:30:54;;;;;;;20.90;6.03;;;5.60;99.90;;;;;;5010311;28;20046;-39
2022/03/19 07:33:21;;;;;;;33.28;7.25;;;5.70;99.90;;;;;;5012281;28;20050;-39
2022/03/19 07:35:48;;;;;;;20.88;6.47;;;5.80;99.90;;;;;;5013509;28;20053;-39
2022/03/19 07:38:14;;;;;;;27.23;6.63;;;5.90;99.90;;;;;;5014866;28;20050;-39
2022/03/19 07:43:26;;;;;;;27.17;7.18;;;6.10;99.90;;;;;;5015182;28;20046;-39
2022/03/19 07:45:54;;;;;;;26.42;6.55;;;6.30;99.90;;;;;;5014240;28;20074;-39
2022/03/19 07:48:21;;;;;;;23.15;6.45;;;6.40;99.90;;;;;;5015464;28;20073;-39
2022/03/19 07:50:47;;;;;;;23.15;6.28;;;6.50;99.90;;;;;;5013916;28;20370;-40
2022/03/19 07:53:14;;;;;;;30.80;6.72;;;6.60;99.90;;;;;;5014011;28;20038;-39
2022/03/19 07:55:41;;;;;;;22.58;6.07;;;6.70;99.90;;;;;;5013532;28;20054;-39
2022/03/19 07:58:08;;;;;;;23.52;6.03;;;6.80;99.90;;;;;;5011065;28;20129;-39
2022/03/19 08:00:34;;;;;;;23.33;6.40;;;6.90;99.90;;;;;;5006448;28;20069;-39
2022/03/19 08:03:02;;;;;;;17.88;5.32;;;7.00;99.90;;;;;;5009997;28;20045;-39
2022/03/19 08:05:29;;;;;;;24.55;6.28;;;7.10;99.90;;;;;;5013936;28;20044;-39
2022/03/19 08:07:56;;;;;;;22.35;5.38;;;7.20;99.90;;;;;;5014315;28;20080;-39
2022/03/19 08:10:24;;;;;;;19.92;5.65;;;7.30;99.90;;;;;;5014781;28;20054;-39
2022/03/19 08:12:51;;;;;;;21.85;6.05;;;7.40;99.90;;;;;;5013809;28;20048;-39
2022/03/19 08:15:18;;;;;;;22.27;5.75;;;7.60;99.90;;;;;;5011801;28;20048;-39
2022/03/19 08:17:45;;;;;;;21.58;5.57;;;7.70;99.90;;;;;;5003077;28;20125;-40
2022/03/19 08:20:15;;;;;;;16.90;5.53;;;7.70;99.90;;;;;;5010169;28;20092;-40
2022/03/19 08:22:41;;;;;;;20.30;5.45;;;7.90;99.90;;;;;;5010552;28;20042;-40
2022/03/19 08:25:09;;;;;;;22.92;5.85;;;7.90;99.90;;;;;;5013571;28;20072;-40
2022/03/19 08:27:35;;;;;;;24.67;6.15;;;8.10;99.90;;;;;;5014102;28;20126;-40
2022/03/19 08:30:03;;;;;;;20.75;5.45;;;8.20;99.90;;;;;;5014591;28;20143;-40
2022/03/19 08:32:31;;;;;;;21.75;5.82;;;8.20;99.90;;;;;;5014395;28;20042;-40
2022/03/19 08:34:57;;;;;;;22.15;4.85;;;8.30;99.90;;;;;;5013381;28;20125;-40
2022/03/19 08:37:26;;;;;;;20.98;4.65;;;8.50;99.90;;;;;;5013661;28;20042;-39
2022/03/19 08:42:37;;;;;;;23.50;5.00;;;8.70;99.30;;;;;;5025032;28;20056;-39
2022/03/19 08:45:04;;;;;;;19.38;4.20;;;8.80;99.30;;;;;;5012765;28;20418;-39
2022/03/19 08:47:31;;;;;;;14.70;4.55;;;9.00;98.60;;;;;;5014280;28;20041;-39
2022/03/19 08:49:59;;;;;;;18.30;4.60;;;9.10;98.40;;;;;;5013217;28;20049;-39
2022/03/19 08:52:27;;;;;;;14.38;4.30;;;9.20;97.60;;;;;;5014073;28;20046;-40
2022/03/19 08:54:55;;;;;;;19.13;4.47;;;9.30;97.00;;;;;;5013069;28;20077;-40
2022/03/19 08:57:22;;;;;;;20.20;4.53;;;9.30;97.10;;;;;;5013189;28;20058;-40
2022/03/19 08:59:49;;;;;;;16.80;3.92;;;9.50;96.20;;;;;;5012594;28;20054;-40
2022/03/19 09:02:16;;;;;;;17.10;4.43;;;9.60;95.90;;;;;;5012963;28;20132;-41
2022/03/19 09:04:42;;;;;;;17.60;4.25;;;9.70;95.40;;;;;;5013683;28;20133;-40
2022/03/19 09:07:09;;;;;;;24.45;5.30;;;9.80;95.10;;;;;;5012223;28;20125;-40
2022/03/19 09:09:37;;;;;;;18.52;4.07;;;9.90;95.00;;;;;;5012251;28;20038;-40
2022/03/19 09:12:05;;;;;;;18.95;4.15;;;10.10;94.10;;;;;;5006364;28;20069;-41
2022/03/19 09:14:32;;;;;;;17.13;3.85;;;10.20;93.80;;;;;;5005192;28;20038;-39
2022/03/19 09:16:58;;;;;;;20.05;4.85;;;10.40;93.60;;;;;;5006811;28;20074;-39
2022/03/19 09:19:27;;;;;;;12.23;3.85;;;10.50;92.90;;;;;;5007792;28;20042;-39
2022/03/19 09:21:54;;;;;;;13.40;3.95;;;10.60;92.30;;;;;;5012977;28;20056;-39
2022/03/19 09:24:20;;;;;;;13.48;3.90;;;10.70;91.80;;;;;;5009612;28;20478;-39
2022/03/19 09:26:49;;;;;;;15.98;4.03;;;10.80;91.30;;;;;;5012308;28;20041;-39
2022/03/19 09:29:15;;;;;;;18.30;4.07;;;10.90;90.50;;;;;;5010734;28;20367;-39
2022/03/19 09:31:42;;;;;;;18.95;4.22;;;10.90;90.10;;;;;;5012087;28;20468;-39
2022/03/19 09:34:10;;;;;;;15.30;3.72;;;11.10;89.70;;;;;;5011828;28;20073;-39
2022/03/19 09:36:37;;;;;;;10.35;2.90;;;11.20;88.90;;;;;;5012152;28;20052;-39
2022/03/19 09:39:03;;;;;;;13.77;3.83;;;11.30;88.20;;;;;;5012343;28;20125;-40
2022/03/19 09:41:30;;;;;;;12.07;3.13;;;11.30;86.80;;;;;;5010614;28;20053;-40
2022/03/19 09:43:59;;;;;;;19.80;4.25;;;11.40;85.50;;;;;;5012320;28;20041;-41
2022/03/19 09:46:25;;;;;;;17.08;3.40;;;11.40;83.60;;;;;;5012643;28;20056;-39
2022/03/19 09:48:53;;;;;;;15.23;3.45;;;11.40;82.70;;;;;;5012694;28;20064;-40
2022/03/19 09:51:19;;;;;;;16.20;3.67;;;11.50;81.70;;;;;;5013089;28;20073;-40
2022/03/19 09:53:48;;;;;;;15.38;3.42;;;11.70;81.90;;;;;;5012040;28;20045;-41
2022/03/19 09:56:16;;;;;;;16.27;4.18;;;11.70;81.10;;;;;;5006243;28;20096;-40
2022/03/19 09:58:43;;;;;;;14.23;3.00;;;11.80;80.60;;;;;;5010257;28;20127;-39
2022/03/19 10:01:11;;;;;;;13.40;2.97;;;11.90;79.30;;;;;;5011358;28;20037;-39
2022/03/19 10:03:40;;;;;;;12.38;3.35;;;12.00;78.50;;;;;;5012404;28;20125;-40
2022/03/19 10:08:56;;;;;;;17.95;3.78;;;12.10;73.40;;;;;;5011734;28;20042;-41
2022/03/19 10:11:25;;;;;;;19.77;4.28;;;12.10;76.00;;;;;;5012072;28;20048;-40
2022/03/19 10:13:52;;;;;;;13.57;3.60;;;12.20;75.60;;;;;;5006553;28;20457;-41
2022/03/19 10:16:25;;;;;;;10.70;2.80;;;12.30;75.10;;;;;;5012825;28;20141;-41
2022/03/19 10:18:55;;;;;;;9.90;2.53;;;12.30;71.70;;;;;;5004322;28;20065;-41
2022/03/19 10:21:22;;;;;;;14.07;3.10;;;12.40;71.00;;;;;;5006033;28;20041;-41
2022/03/19 10:23:49;;;;;;;12.35;2.97;;;12.40;71.40;;;;;;5025905;28;20088;-39
2022/03/19 10:26:26;;;;;;;14.30;2.70;;;12.30;70.50;;;;;;5011483;28;20113;-40
2022/03/19 10:28:57;;;;;;;9.95;2.53;;;12.50;67.00;;;;;;5010554;28;20563;-40
2022/03/19 10:31:33;;;;;;;12.77;3.03;;;12.50;67.60;;;;;;5007218;28;20108;-41
2022/03/19 10:34:00;;;;;;;15.10;3.50;;;12.60;67.90;;;;;;5004795;28;20069;-40
2022/03/19 10:36:31;;;;;;;16.05;3.28;;;12.70;68.20;;;;;;5011649;28;20129;-40
2022/03/19 10:38:58;;;;;;;14.40;3.35;;;12.80;67.70;;;;;;5012396;28;20058;-39
2022/03/19 10:41:25;;;;;;;11.35;3.00;;;12.90;66.60;;;;;;5012692;28;20048;-41
2022/03/19 10:43:52;;;;;;;10.07;2.60;;;12.90;64.70;;;;;;5010932;28;20134;-40
2022/03/19 10:46:19;;;;;;;10.50;2.58;;;12.80;64.10;;;;;;5011658;28;20374;-40
2022/03/19 10:48:50;;;;;;;9.63;2.42;;;12.80;63.20;;;;;;5010787;28;20457;-40
2022/03/19 10:51:18;;;;;;;10.63;2.38;;;12.90;63.10;;;;;;5011084;28;20057;-40
2022/03/19 10:53:45;;;;;;;10.80;3.03;;;13.00;63.50;;;;;;5011649;28;20084;-40
2022/03/19 10:56:12;;;;;;;10.43;2.83;;;13.10;62.90;;;;;;5012512;28;20125;-40
2022/03/19 10:58:39;;;;;;;12.38;2.50;;;13.20;62.50;;;;;;5012861;28;20049;-41
2022/03/19 11:01:07;;;;;;;11.27;2.63;;;13.30;62.20;;;;;;5011117;28;20042;-41
2022/03/19 11:03:36;;;;;;;14.45;3.05;;;13.40;62.50;;;;;;5011392;28;20052;-40
2022/03/19 11:06:05;;;;;;;10.48;2.08;;;13.50;62.20;;;;;;5012089;28;20429;-40
2022/03/19 11:08:34;;;;;;;8.55;2.25;;;13.60;60.40;;;;;;5010833;28;20115;-40
2022/03/19 11:11:00;;;;;;;10.07;2.22;;;13.40;58.60;;;;;;5009508;28;20058;-40
2022/03/19 11:13:27;;;;;;;8.80;1.92;;;13.40;58.30;;;;;;5009392;28;20046;-40
2022/03/19 11:15:55;;;;;;;8.15;2.15;;;13.50;58.30;;;;;;5013180;28;20045;-40
2022/03/19 11:18:22;;;;;;;7.88;2.00;;;13.50;57.40;;;;;;5010529;28;20125;-40
2022/03/19 11:20:49;;;;;;;12.23;2.55;;;13.60;57.50;;;;;;5013393;28;20046;-40
2022/03/19 11:23:22;;;;;;;9.98;2.50;;;13.60;57.50;;;;;;5031469;28;20050;-40
2022/03/19 11:25:52;;;;;;;10.55;2.70;;;13.70;57.90;;;;;;5012585;28;20038;-40
2022/03/19 11:28:18;;;;;;;8.80;2.63;;;13.80;57.40;;;;;;5011509;28;20128;-41
2022/03/19 11:31:01;;;;;;;10.50;2.58;;;13.90;58.60;;;;;;5011412;28;20138;-41
2022/03/19 11:33:30;;;;;;;7.75;2.42;;;14.10;56.40;;;;;;5012641;28;20046;-41
2022/03/19 11:36:05;;;;;;;6.32;1.77;;;14.20;56.60;;;;;;5011927;28;20038;-42
2022/03/19 11:38:34;;;;;;;7.88;2.42;;;14.20;54.50;;;;;;5025817;28;20137;-40
2022/03/19 11:41:00;;;;;;;8.68;2.30;;;14.30;55.30;;;;;;5015165;28;20048;-40
2022/03/19 11:43:31;;;;;;;6.53;1.90;;;14.40;55.80;;;;;;5012772;28;20054;-40
2022/03/19 11:46:00;;;;;;;11.48;3.17;;;14.40;54.00;;;;;;5010925;28;20045;-40
2022/03/19 11:48:51;;;;;;;6.72;1.58;;;14.40;53.70;;;;;;5008378;28;20058;-40
2022/03/19 11:51:37;;;;;;;8.13;1.88;;;14.30;50.90;;;;;;5007366;28;20211;-40
2022/03/19 11:54:06;;;;;;;6.57;1.73;;;14.30;50.40;;;;;;5006682;28;20481;-40
2022/03/19 11:57:04;;;;;;;7.53;2.00;;;14.30;54.00;;;;;;5011781;28;20518;-40
2022/03/19 11:59:44;;;;;;;6.88;1.90;;;14.40;50.20;;;;;;5003749;28;20414;-41
2022/03/19 12:02:12;;;;;;;7.68;1.90;;;14.30;52.00;;;;;;5005521;28;20045;-41
2022/03/19 12:04:44;;;;;;;6.82;2.15;;;14.20;52.30;;;;;;4999206;28;20711;-41
2022/03/19 12:07:11;;;;;;;4.93;1.88;;;14.20;52.40;;;;;;5001525;28;20050;-41
2022/03/19 12:10:01;;;;;;;11.07;2.30;;;14.20;53.70;;;;;;5000184;28;20048;-41
2022/03/19 12:12:28;;;;;;;10.60;1.77;;;14.40;51.80;;;;;;5002651;28;21527;-41
2022/03/19 12:14:56;;;;;;;4.18;1.70;;;14.50;53.70;;;;;;4998974;28;20065;-41
2022/03/19 12:17:24;;;;;;;5.60;2.17;;;14.70;53.90;;;;;;5000292;28;20058;-41
2022/03/19 12:19:53;;;;;;;9.40;2.15;;;14.90;53.30;;;;;;5001852;28;20038;-43
2022/03/19 12:22:28;;;;;;;3.63;1.70;;;15.00;52.40;;;;;;5024088;28;20060;-42
2022/03/19 12:24:56;;;;;;;4.50;1.52;;;15.20;50.00;;;;;;5013794;28;20390;-41
2022/03/19 12:27:24;;;;;;;6.88;1.30;;;15.20;50.40;;;;;;5013969;28;20125;-41
2022/03/19 12:29:51;;;;;;;9.50;1.83;;;15.00;48.40;;;;;;5010963;28;20053;-40
2022/03/19 12:32:17;;;;;;;2.80;1.23;;;15.00;47.70;;;;;;5008711;28;20056;-41
2022/03/19 12:34:44;;;;;;;5.43;1.45;;;15.00;47.60;;;;;;5013110;28;20502;-41
2022/03/19 12:37:11;;;;;;;6.30;1.33;;;15.10;47.80;;;;;;5014095;28;20427;-42
2022/03/19 12:39:38;;;;;;;5.65;1.45;;;15.10;47.80;;;;;;5013685;28;20052;-42
2022/03/19 12:42:05;;;;;;;3.30;1.50;;;15.10;47.40;;;;;;5013472;28;20137;-41
2022/03/19 12:44:36;;;;;;;5.18;1.40;;;15.00;46.80;;;;;;5012619;28;20085;-41
2022/03/19 12:47:04;;;;;;;7.80;1.60;;;14.90;45.10;;;;;;5003173;28;20421;-41
2022/03/19 12:49:31;;;;;;;4.20;1.50;;;14.80;46.10;;;;;;5012039;28;20124;-42
2022/03/19 12:52:07;;;;;;;5.03;1.67;;;14.90;46.90;;;;;;5012131;28;20049;-42
2022/03/19 12:54:33;;;;;;;4.60;1.30;;;15.10;47.20;;;;;;5009275;28;20038;-42
2022/03/19 12:57:09;;;;;;;5.15;1.38;;;15.20;46.30;;;;;;5014183;28;20454;-42
2022/03/19 12:59:37;;;;;;;6.20;1.67;;;15.20;43.90;;;;;;5010600;28;20050;-42
2022/03/19 13:02:05;;;;;;;2.63;1.27;;;15.10;45.00;;;;;;5012649;28;20046;-41
2022/03/19 13:04:32;;;;;;;8.18;1.40;;;15.10;45.30;;;;;;5013816;28;20141;-41
2022/03/19 13:06:59;;;;;;;4.80;1.60;;;15.10;45.40;;;;;;5013435;28;20052;-41